sensor_id;sensor_type;location;lat;lon;timestamp;pressure;altitude;pressure_sealevel;temperature;humidity
76044;BME280;64740;34.694;33.088;2023-12-20T00:01:34;1044.1;;;19.8;33.9
76044;BME280;64740;34.694;33.088;2023-12-20T00:07:15;1044;;;19.8;34.3
76044;BME280;64740;34.694;33.088;2023-12-20T00:11:54;1043.9;;;19.8;34.4
76044;BME280;64740;34.694;33.088;2023-12-20T00:17:14;1043.9;;;19.8;34.4
76044;BME280;64740;34.694;33.088;2023-12-20T00:22:04;1043.8;;;19.7;34.6
76044;BME280;64740;34.694;33.088;2023-12-20T00:26:34;1043.8;;;19.6;34.7
76044;BME280;64740;34.694;33.088;2023-12-20T00:32:12;1043.8;;;19.6;35.1
76044;BME280;64740;34.694;33.088;2023-12-20T00:36:37;1043.8;;;19.7;35.2
76044;BME280;64740;34.694;33.088;2023-12-20T00:42:00;1043.7;;;19.7;35.3
76044;BME280;64740;34.694;33.088;2023-12-20T00:46:34;1043.6;;;19.7;35.3
76044;BME280;64740;34.694;33.088;2023-12-20T00:51:40;1043.5;;;19.7;35.4
76044;BME280;64740;34.694;33.088;2023-12-20T00:57:12;1043.5;;;19.7;35.6
76044;BME280;64740;34.694;33.088;2023-12-20T01:02:04;1043.4;;;19.7;35.8
76044;BME280;64740;34.694;33.088;2023-12-20T01:07:14;1043.4;;;19.7;35.9
76044;BME280;64740;34.694;33.088;2023-12-20T01:12:05;1043.3;;;19.7;36
76044;BME280;64740;34.694;33.088;2023-12-20T01:16:50;1043.3;;;19.7;36
76044;BME280;64740;34.694;33.088;2023-12-20T01:22:14;1043.2;;;19.7;36
76044;BME280;64740;34.694;33.088;2023-12-20T01:26:44;1043.1;;;19.7;36
76044;BME280;64740;34.694;33.088;2023-12-20T01:31:42;1043.1;;;19.6;36.1
76044;BME280;64740;34.694;33.088;2023-12-20T01:36:42;1043;;;19.6;36.4
76044;BME280;64740;34.694;33.088;2023-12-20T01:41:40;1042.9;;;19.6;36.5
76044;BME280;64740;34.694;33.088;2023-12-20T01:47:14;1042.9;;;19.6;36.5
76044;BME280;64740;34.694;33.088;2023-12-20T01:51:42;1042.9;;;19.6;36.4
76044;BME280;64740;34.694;33.088;2023-12-20T01:57:12;1043;;;19.6;36.4
76044;BME280;64740;34.694;33.088;2023-12-20T02:02:04;1043.1;;;19.4;36.5
76044;BME280;64740;34.694;33.088;2023-12-20T02:06:34;1043.2;;;19.4;36.8
76044;BME280;64740;34.694;33.088;2023-12-20T02:12:14;1043.2;;;19.5;36.9
76044;BME280;64740;34.694;33.088;2023-12-20T02:17:04;1043.2;;;19.5;37
76044;BME280;64740;34.694;33.088;2023-12-20T02:22:15;1043.3;;;19.6;37.1
76044;BME280;64740;34.694;33.088;2023-12-20T02:26:42;1043.2;;;19.5;37.2
76044;BME280;64740;34.694;33.088;2023-12-20T02:31:52;1043.2;;;19.5;37.4
76044;BME280;64740;34.694;33.088;2023-12-20T02:37:04;1043.1;;;19.6;37.4
76044;BME280;64740;34.694;33.088;2023-12-20T02:42:14;1043;;;19.5;37.4
76044;BME280;64740;34.694;33.088;2023-12-20T02:46:34;1043;;;19.4;37.4
76044;BME280;64740;34.694;33.088;2023-12-20T02:51:36;1043;;;19.5;37.6
76044;BME280;64740;34.694;33.088;2023-12-20T02:56:50;1042.9;;;19.6;37.5
76044;BME280;64740;34.694;33.088;2023-12-20T03:01:50;1043;;;19.6;37.4
76044;BME280;64740;34.694;33.088;2023-12-20T03:07:14;1043;;;19.7;37.4
76044;BME280;64740;34.694;33.088;2023-12-20T03:11:34;1043;;;19.8;37.2
76044;BME280;64740;34.694;33.088;2023-12-20T03:16:46;1043;;;19.9;37.3
76044;BME280;64740;34.694;33.088;2023-12-20T03:21:54;1043;;;20;37.1
76044;BME280;64740;34.694;33.088;2023-12-20T03:27:04;1043;;;20;37
76044;BME280;64740;34.694;33.088;2023-12-20T03:32:14;1043.2;;;20.1;37.1
76044;BME280;64740;34.694;33.088;2023-12-20T03:37:04;1043.4;;;20.1;37.1
76044;BME280;64740;34.694;33.088;2023-12-20T03:42:01;1043.5;;;20.2;37.2
76044;BME280;64740;34.694;33.088;2023-12-20T03:46:50;1043.5;;;20.2;37
76044;BME280;64740;34.694;33.088;2023-12-20T03:52:17;1043.7;;;20.1;36.9
76044;BME280;64740;34.694;33.088;2023-12-20T03:57:14;1043.7;;;20.1;37
76044;BME280;64740;34.694;33.088;2023-12-20T04:01:49;1043.6;;;20;37.2
76044;BME280;64740;34.694;33.088;2023-12-20T04:06:50;1043.6;;;19.9;37.4
76044;BME280;64740;34.694;33.088;2023-12-20T04:11:41;1043.7;;;19.8;37.4
76044;BME280;64740;34.694;33.088;2023-12-20T04:16:36;1043.7;;;19.8;37.6
76044;BME280;64740;34.694;33.088;2023-12-20T04:22:15;1043.7;;;19.7;37.8
76044;BME280;64740;34.694;33.088;2023-12-20T04:27:04;1043.6;;;19.6;38.3
76044;BME280;64740;34.694;33.088;2023-12-20T04:32:00;1043.5;;;19.6;38.5
76044;BME280;64740;34.694;33.088;2023-12-20T04:36:43;1043.5;;;19.5;38.4
76044;BME280;64740;34.694;33.088;2023-12-20T04:41:51;1043.5;;;19.5;38.5
76044;BME280;64740;34.694;33.088;2023-12-20T04:47:15;1043.4;;;19.5;38.7
76044;BME280;64740;34.694;33.088;2023-12-20T04:51:35;1043.5;;;19.4;38.8
76044;BME280;64740;34.694;33.088;2023-12-20T04:56:42;1043.4;;;19.3;38.9
76044;BME280;64740;34.694;33.088;2023-12-20T05:01:47;1043.4;;;19.3;39.2
76044;BME280;64740;34.694;33.088;2023-12-20T05:07:03;1043.3;;;19.2;39.5
76044;BME280;64740;34.694;33.088;2023-12-20T05:12:15;1043.4;;;19.2;39.8
76044;BME280;64740;34.694;33.088;2023-12-20T05:16:43;1043.4;;;19.2;40
76044;BME280;64740;34.694;33.088;2023-12-20T05:21:43;1043.5;;;19.3;40.1
76044;BME280;64740;34.694;33.088;2023-12-20T05:26:35;1043.5;;;19.3;40.2
76044;BME280;64740;34.694;33.088;2023-12-20T05:31:51;1043.4;;;19.4;40.3
76044;BME280;64740;34.694;33.088;2023-12-20T05:37:15;1043.4;;;19.5;40.4
76044;BME280;64740;34.694;33.088;2023-12-20T05:41:53;1043.4;;;19.5;40.3
76044;BME280;64740;34.694;33.088;2023-12-20T05:47:15;1043.4;;;19.6;40.2
76044;BME280;64740;34.694;33.088;2023-12-20T05:51:41;1043.3;;;19.8;40
76044;BME280;64740;34.694;33.088;2023-12-20T05:57:05;1043.2;;;19.9;39.6
76044;BME280;64740;34.694;33.088;2023-12-20T06:01:57;1043.2;;;20.1;39.5
76044;BME280;64740;34.694;33.088;2023-12-20T06:07:05;1043.2;;;20.2;39.3
76044;BME280;64740;34.694;33.088;2023-12-20T06:12:15;1043.2;;;20.4;39.2
76044;BME280;64740;34.694;33.088;2023-12-20T06:16:35;1043.2;;;20.6;39.2
76044;BME280;64740;34.694;33.088;2023-12-20T06:21:35;1043.2;;;20.8;39.2
76044;BME280;64740;34.694;33.088;2023-12-20T06:27:15;1043.1;;;21;39.2
76044;BME280;64740;34.694;33.088;2023-12-20T06:31:35;1043.1;;;21.1;39
76044;BME280;64740;34.694;33.088;2023-12-20T06:36:35;1043.2;;;21.2;39.2
76044;BME280;64740;34.694;33.088;2023-12-20T06:41:35;1043.3;;;21.4;39.2
76044;BME280;64740;34.694;33.088;2023-12-20T06:47:05;1043.3;;;21.5;39.3
76044;BME280;64740;34.694;33.088;2023-12-20T06:52:07;1043.3;;;21.6;39.1
76044;BME280;64740;34.694;33.088;2023-12-20T06:56:51;1043.3;;;21.8;39.2
76044;BME280;64740;34.694;33.088;2023-12-20T07:01:59;1043.4;;;21.9;39.3
76044;BME280;64740;34.694;33.088;2023-12-20T07:06:35;1043.5;;;22;39.1
76044;BME280;64740;34.694;33.088;2023-12-20T07:11:51;1043.5;;;22.1;38.6
76044;BME280;64740;34.694;33.088;2023-12-20T07:17:07;1043.5;;;22.1;38.4
76044;BME280;64740;34.694;33.088;2023-12-20T07:21:57;1043.4;;;22.2;38.3
76044;BME280;64740;34.694;33.088;2023-12-20T07:26:43;1043.4;;;22.2;38.7
76044;BME280;64740;34.694;33.088;2023-12-20T07:32:07;1043.5;;;22.3;38.6
76044;BME280;64740;34.694;33.088;2023-12-20T07:37:05;1043.5;;;22.4;38.2
76044;BME280;64740;34.694;33.088;2023-12-20T07:42:15;1043.4;;;22.5;37.3
76044;BME280;64740;34.694;33.088;2023-12-20T07:46:49;1043.3;;;22.5;37
76044;BME280;64740;34.694;33.088;2023-12-20T07:51:57;1043.4;;;22.7;37.5
76044;BME280;64740;34.694;33.088;2023-12-20T07:56:53;1043.3;;;22.8;37.3
76044;BME280;64740;34.694;33.088;2023-12-20T08:01:41;1043.3;;;22.9;37.2
76044;BME280;64740;34.694;33.088;2023-12-20T08:07:17;1043.3;;;23;37.2
76044;BME280;64740;34.694;33.088;2023-12-20T08:11:35;1043.3;;;23.1;36.2
76044;BME280;64740;34.694;33.088;2023-12-20T08:16:43;1043.2;;;23.1;35.6
76044;BME280;64740;34.694;33.088;2023-12-20T08:22:17;1043.1;;;23.2;36.1
76044;BME280;64740;34.694;33.088;2023-12-20T08:27:05;1043;;;23.3;36
76044;BME280;64740;34.694;33.088;2023-12-20T08:32:05;1042.9;;;23.4;35.9
76044;BME280;64740;34.694;33.088;2023-12-20T08:36:35;1042.9;;;23.5;35.2
76044;BME280;64740;34.694;33.088;2023-12-20T08:42:01;1042.8;;;23.5;34.8
76044;BME280;64740;34.694;33.088;2023-12-20T08:47:17;1042.7;;;23.6;34.6
76044;BME280;64740;34.694;33.088;2023-12-20T08:51:49;1042.5;;;23.7;34.7
76044;BME280;64740;34.694;33.088;2023-12-20T08:57:15;1042.4;;;23.8;34.5
76044;BME280;64740;34.694;33.088;2023-12-20T09:02:05;1042.3;;;23.8;34.2
76044;BME280;64740;34.694;33.088;2023-12-20T09:06:43;1042.2;;;23.9;34.8
76044;BME280;64740;34.694;33.088;2023-12-20T09:11:57;1042.1;;;24;34.7
76044;BME280;64740;34.694;33.088;2023-12-20T09:16:57;1042;;;24;34.6
76044;BME280;64740;34.694;33.088;2023-12-20T09:22:07;1041.9;;;24;34.6
76044;BME280;64740;34.694;33.088;2023-12-20T09:26:43;1041.8;;;24.1;34.9
76044;BME280;64740;34.694;33.088;2023-12-20T09:31:45;1041.8;;;24.2;34.3
76044;BME280;64740;34.694;33.088;2023-12-20T09:37:15;1041.8;;;24.3;34.6
76044;BME280;64740;34.694;33.088;2023-12-20T09:41:36;1041.8;;;24.3;34.7
76044;BME280;64740;34.694;33.088;2023-12-20T09:47:15;1041.6;;;24.4;33.9
76044;BME280;64740;34.694;33.088;2023-12-20T09:52:17;1041.7;;;24.5;33.8
76044;BME280;64740;34.694;33.088;2023-12-20T09:56:43;1041.6;;;24.6;34.2
76044;BME280;64740;34.694;33.088;2023-12-20T10:02:15;1041.5;;;24.7;33.8
76044;BME280;64740;34.694;33.088;2023-12-20T10:07:05;1041.5;;;24.8;34.3
76044;BME280;64740;34.694;33.088;2023-12-20T10:12:17;1041.5;;;24.8;34.7
76044;BME280;64740;34.694;33.088;2023-12-20T10:16:51;1041.4;;;24.9;34.3
76044;BME280;64740;34.694;33.088;2023-12-20T10:22:01;1041.3;;;24.9;34.4
76044;BME280;64740;34.694;33.088;2023-12-20T10:27:17;1041.3;;;25;35.8
76044;BME280;64740;34.694;33.088;2023-12-20T10:32:21;1041.2;;;25;36.3
76044;BME280;64740;34.694;33.088;2023-12-20T10:37:21;1041.2;;;25.1;36.3
76044;BME280;64740;34.694;33.088;2023-12-20T10:41:47;1041.2;;;25.2;36
76044;BME280;64740;34.694;33.088;2023-12-20T10:46:37;1041;;;25.3;36
76044;BME280;64740;34.694;33.088;2023-12-20T10:52:17;1040.9;;;25.4;36.3
76044;BME280;64740;34.694;33.088;2023-12-20T10:57:05;1040.9;;;25.5;35.9
76044;BME280;64740;34.694;33.088;2023-12-20T11:02:08;1040.9;;;25.6;35.6
76044;BME280;64740;34.694;33.088;2023-12-20T11:06:51;1040.9;;;25.8;35.7
76044;BME280;64740;34.694;33.088;2023-12-20T11:12:09;1040.8;;;25.9;35.5
76044;BME280;64740;34.694;33.088;2023-12-20T11:16:51;1040.7;;;26.2;35.2
76044;BME280;64740;34.694;33.088;2023-12-20T11:21:37;1040.8;;;26.7;35.2
76044;BME280;64740;34.694;33.088;2023-12-20T11:27:17;1040.8;;;26.9;35.1
76044;BME280;64740;34.694;33.088;2023-12-20T11:31:43;1040.7;;;27.2;34.7
76044;BME280;64740;34.694;33.088;2023-12-20T11:36:56;1040.6;;;27.4;34.7
76044;BME280;64740;34.694;33.088;2023-12-20T11:41:55;1040.6;;;27.7;34.2
76044;BME280;64740;34.694;33.088;2023-12-20T11:46:47;1040.6;;;28;33.8
76044;BME280;64740;34.694;33.088;2023-12-20T11:51:51;1040.6;;;28.3;33.6
76044;BME280;64740;34.694;33.088;2023-12-20T11:57:17;1040.6;;;28.5;33.5
76044;BME280;64740;34.694;33.088;2023-12-20T12:02:17;1040.5;;;28.7;33.1
76044;BME280;64740;34.694;33.088;2023-12-20T12:07:01;1040.6;;;28.9;32.9
76044;BME280;64740;34.694;33.088;2023-12-20T12:11:43;1040.7;;;28.9;32.4
76044;BME280;64740;34.694;33.088;2023-12-20T12:16:35;1040.6;;;29;32
76044;BME280;64740;34.694;33.088;2023-12-20T12:21:43;1040.6;;;29.1;32.2
76044;BME280;64740;34.694;33.088;2023-12-20T12:26:41;1040.6;;;29.3;31.9
76044;BME280;64740;34.694;33.088;2023-12-20T12:32:09;1040.6;;;29.2;31.9
76044;BME280;64740;34.694;33.088;2023-12-20T12:36:35;1040.6;;;29.1;31.8
76044;BME280;64740;34.694;33.088;2023-12-20T12:42:03;1040.6;;;28.9;31.7
76044;BME280;64740;34.694;33.088;2023-12-20T12:47:09;1040.6;;;29;31.6
76044;BME280;64740;34.694;33.088;2023-12-20T12:52:03;1040.6;;;29.2;31.4
76044;BME280;64740;34.694;33.088;2023-12-20T12:57:01;1040.6;;;29.2;31.2
76044;BME280;64740;34.694;33.088;2023-12-20T13:01:35;1040.6;;;29.1;31.2
76044;BME280;64740;34.694;33.088;2023-12-20T13:06:43;1040.8;;;29.3;30.9
76044;BME280;64740;34.694;33.088;2023-12-20T13:11:55;1040.7;;;29.1;30.8
76044;BME280;64740;34.694;33.088;2023-12-20T13:16:35;1040.7;;;28.7;31
76044;BME280;64740;34.694;33.088;2023-12-20T13:22:17;1040.7;;;28.5;31.1
76044;BME280;64740;34.694;33.088;2023-12-20T13:27:17;1040.6;;;28.5;30.9
76044;BME280;64740;34.694;33.088;2023-12-20T13:31:53;1040.5;;;28.6;30.9
76044;BME280;64740;34.694;33.088;2023-12-20T13:37:15;1040.4;;;29;30.3
76044;BME280;64740;34.694;33.088;2023-12-20T13:41:53;1040.6;;;29;30.1
76044;BME280;64740;34.694;33.088;2023-12-20T13:47:03;1040.7;;;28.2;30.2
76044;BME280;64740;34.694;33.088;2023-12-20T13:51:49;1040.7;;;27.3;31
76044;BME280;64740;34.694;33.088;2023-12-20T13:56:35;1040.6;;;26.5;31.6
76044;BME280;64740;34.694;33.088;2023-12-20T14:01:57;1040.5;;;26;32.2
76044;BME280;64740;34.694;33.088;2023-12-20T14:06:43;1040.3;;;25.5;32.5
76044;BME280;64740;34.694;33.088;2023-12-20T14:12:15;1040.1;;;25.1;33
76044;BME280;64740;34.694;33.088;2023-12-20T14:16:55;1040;;;24.8;33.6
76044;BME280;64740;34.694;33.088;2023-12-20T14:22:01;1039.9;;;24.5;34.3
76044;BME280;64740;34.694;33.088;2023-12-20T14:27:17;1039.9;;;24.3;34.4
76044;BME280;64740;34.694;33.088;2023-12-20T14:32:02;1039.9;;;24.1;34.9
76044;BME280;64740;34.694;33.088;2023-12-20T14:36:43;1040;;;23.9;35.1
76044;BME280;64740;34.694;33.088;2023-12-20T14:41:35;1040.2;;;23.7;35.3
76044;BME280;64740;34.694;33.088;2023-12-20T14:46:35;1040.3;;;23.5;35
76044;BME280;64740;34.694;33.088;2023-12-20T14:51:35;1040.5;;;23.3;34.9
76044;BME280;64740;34.694;33.088;2023-12-20T14:56:59;1040.7;;;23.2;34.9
76044;BME280;64740;34.694;33.088;2023-12-20T15:02:17;1040.9;;;23.1;35
76044;BME280;64740;34.694;33.088;2023-12-20T15:06:35;1040.9;;;23;35.3
76044;BME280;64740;34.694;33.088;2023-12-20T15:11:37;1040.9;;;22.9;35.3
76044;BME280;64740;34.694;33.088;2023-12-20T15:17:15;1040.9;;;22.8;35.4
76044;BME280;64740;34.694;33.088;2023-12-20T15:21:53;1040.9;;;22.7;35.8
76044;BME280;64740;34.694;33.088;2023-12-20T15:27:03;1040.8;;;22.7;36.2
76044;BME280;64740;34.694;33.088;2023-12-20T15:31:43;1040.7;;;22.6;36.1
76044;BME280;64740;34.694;33.088;2023-12-20T15:36:41;1040.6;;;22.5;36.2
76044;BME280;64740;34.694;33.088;2023-12-20T15:41:35;1040.5;;;22.4;36.3
76044;BME280;64740;34.694;33.088;2023-12-20T15:46:43;1040.4;;;22.3;36.7
76044;BME280;64740;34.694;33.088;2023-12-20T15:52:13;1040.3;;;22.2;37
76044;BME280;64740;34.694;33.088;2023-12-20T15:56:43;1040.6;;;22.2;37.1
76044;BME280;64740;34.694;33.088;2023-12-20T16:01:59;1040.5;;;22.1;37.1
76044;BME280;64740;34.694;33.088;2023-12-20T16:07:03;1040.4;;;22.1;37
76044;BME280;64740;34.694;33.088;2023-12-20T16:11:37;1040.3;;;22.1;37
76044;BME280;64740;34.694;33.088;2023-12-20T16:17:13;1040.5;;;22;37.2
76044;BME280;64740;34.694;33.088;2023-12-20T16:21:51;1040.6;;;22;37.2
76044;BME280;64740;34.694;33.088;2023-12-20T16:26:51;1040.4;;;21.9;37.4
76044;BME280;64740;34.694;33.088;2023-12-20T16:31:43;1040.4;;;21.8;37.5
76044;BME280;64740;34.694;33.088;2023-12-20T16:37:07;1040.5;;;21.8;37.5
76044;BME280;64740;34.694;33.088;2023-12-20T16:42:04;1040.4;;;21.7;37.6
76044;BME280;64740;34.694;33.088;2023-12-20T16:47:19;1040.3;;;21.6;37.7
76044;BME280;64740;34.694;33.088;2023-12-20T16:52:07;1040.3;;;21.6;37.9
76044;BME280;64740;34.694;33.088;2023-12-20T16:57:03;1040.3;;;21.6;37.9
76044;BME280;64740;34.694;33.088;2023-12-20T17:02:15;1040.4;;;21.5;38.1
76044;BME280;64740;34.694;33.088;2023-12-20T17:07:17;1040.5;;;21.5;38.2
76044;BME280;64740;34.694;33.088;2023-12-20T17:11:35;1040.5;;;21.4;38.2
76044;BME280;64740;34.694;33.088;2023-12-20T17:16:35;1040.5;;;21.4;38.2
76044;BME280;64740;34.694;33.088;2023-12-20T17:22:15;1040.5;;;21.4;38.1
76044;BME280;64740;34.694;33.088;2023-12-20T17:26:55;1040.5;;;21.4;38.1
76044;BME280;64740;34.694;33.088;2023-12-20T17:32:07;1040.5;;;21.5;38.1
76044;BME280;64740;34.694;33.088;2023-12-20T17:36:43;1040.5;;;21.5;38
76044;BME280;64740;34.694;33.088;2023-12-20T17:42:17;1040.5;;;21.4;38.1
76044;BME280;64740;34.694;33.088;2023-12-20T17:47:07;1040.5;;;21.4;38
76044;BME280;64740;34.694;33.088;2023-12-20T17:51:35;1040.4;;;21.4;38
76044;BME280;64740;34.694;33.088;2023-12-20T17:57:19;1040.3;;;21.4;38
76044;BME280;64740;34.694;33.088;2023-12-20T18:01:59;1040.4;;;21.4;37.9
76044;BME280;64740;34.694;33.088;2023-12-20T18:06:35;1040.4;;;21.4;37.9
76044;BME280;64740;34.694;33.088;2023-12-20T18:11:47;1040.4;;;21.4;37.7
76044;BME280;64740;34.694;33.088;2023-12-20T18:16:35;1040.2;;;21.4;37.5
76044;BME280;64740;34.694;33.088;2023-12-20T18:21:55;1040.1;;;21.4;37.6
76044;BME280;64740;34.694;33.088;2023-12-20T18:26:35;1040;;;21.4;37.4
76044;BME280;64740;34.694;33.088;2023-12-20T18:32:13;1039.8;;;21.3;37.4
76044;BME280;64740;34.694;33.088;2023-12-20T18:37:07;1039.7;;;21.3;37.5
76044;BME280;64740;34.694;33.088;2023-12-20T18:41:51;1039.8;;;21.4;37.5
76044;BME280;64740;34.694;33.088;2023-12-20T18:47:17;1039.8;;;21.4;37.7
76044;BME280;64740;34.694;33.088;2023-12-20T18:51:43;1039.9;;;21.4;38
76044;BME280;64740;34.694;33.088;2023-12-20T18:56:49;1040;;;21.4;38.2
76044;BME280;64740;34.694;33.088;2023-12-20T19:01:57;1039.9;;;21.4;38.3
76044;BME280;64740;34.694;33.088;2023-12-20T19:07:05;1039.9;;;21.4;38.3
76044;BME280;64740;34.694;33.088;2023-12-20T19:12:05;1039.9;;;21.4;38.2
76044;BME280;64740;34.694;33.088;2023-12-20T19:16:47;1039.9;;;21.4;38.3
76044;BME280;64740;34.694;33.088;2023-12-20T19:22:13;1039.9;;;21.4;38.3
76044;BME280;64740;34.694;33.088;2023-12-20T19:27:09;1039.9;;;21.4;38.3
76044;BME280;64740;34.694;33.088;2023-12-20T19:32:15;1040;;;21.4;38.4
76044;BME280;64740;34.694;33.088;2023-12-20T19:37:19;1040;;;21.4;38.6
76044;BME280;64740;34.694;33.088;2023-12-20T19:41:35;1040;;;21.4;38.6
76044;BME280;64740;34.694;33.088;2023-12-20T19:47:11;1040.1;;;21.4;38.8
76044;BME280;64740;34.694;33.088;2023-12-20T19:51:43;1040;;;21.5;38.8
76044;BME280;64740;34.694;33.088;2023-12-20T19:56:47;1040.2;;;21.5;38.7
76044;BME280;64740;34.694;33.088;2023-12-20T20:01:59;1040.2;;;21.5;38.8
76044;BME280;64740;34.694;33.088;2023-12-20T20:06:57;1040.1;;;21.5;38.8
76044;BME280;64740;34.694;33.088;2023-12-20T20:12:17;1040.1;;;21.6;38.8
76044;BME280;64740;34.694;33.088;2023-12-20T20:16:57;1039.9;;;21.6;39
76044;BME280;64740;34.694;33.088;2023-12-20T20:21:35;1039.8;;;21.6;38.9
76044;BME280;64740;34.694;33.088;2023-12-20T20:27:17;1039.9;;;21.6;38.9
76044;BME280;64740;34.694;33.088;2023-12-20T20:31:51;1039.9;;;21.6;38.9
76044;BME280;64740;34.694;33.088;2023-12-20T20:36:41;1039.8;;;21.6;38.9
76044;BME280;64740;34.694;33.088;2023-12-20T20:41:43;1039.8;;;21.6;39.1
76044;BME280;64740;34.694;33.088;2023-12-20T20:46:43;1039.9;;;21.6;39.2
76044;BME280;64740;34.694;33.088;2023-12-20T20:52:19;1039.9;;;21.6;39
76044;BME280;64740;34.694;33.088;2023-12-20T20:57:07;1039.8;;;21.6;39.2
76044;BME280;64740;34.694;33.088;2023-12-20T21:01:43;1039.7;;;21.6;39.2
76044;BME280;64740;34.694;33.088;2023-12-20T21:06:37;1039.7;;;21.6;39.2
76044;BME280;64740;34.694;33.088;2023-12-20T21:11:59;1039.6;;;21.6;39.4
76044;BME280;64740;34.694;33.088;2023-12-20T21:17:13;1039.7;;;21.6;39.4
76044;BME280;64740;34.694;33.088;2023-12-20T21:21:51;1039.8;;;21.7;39.5
76044;BME280;64740;34.694;33.088;2023-12-20T21:26:51;1039.8;;;21.7;39.5
76044;BME280;64740;34.694;33.088;2023-12-20T21:32:07;1039.9;;;21.7;39.3
76044;BME280;64740;34.694;33.088;2023-12-20T21:36:55;1039.9;;;21.7;39.3
76044;BME280;64740;34.694;33.088;2023-12-20T21:42:17;1039.9;;;21.7;39.4
76044;BME280;64740;34.694;33.088;2023-12-20T21:47:07;1039.8;;;21.7;39.4
76044;BME280;64740;34.694;33.088;2023-12-20T21:52:01;1039.7;;;21.7;39.4
76044;BME280;64740;34.694;33.088;2023-12-20T21:57:05;1039.4;;;21.7;39.3
76044;BME280;64740;34.694;33.088;2023-12-20T22:01:49;1039.3;;;21.8;39.2
76044;BME280;64740;34.694;33.088;2023-12-20T22:07:15;1039.4;;;21.8;38.9
76044;BME280;64740;34.694;33.088;2023-12-20T22:12:19;1039.4;;;21.8;38.8
76044;BME280;64740;34.694;33.088;2023-12-20T22:16:35;1039.2;;;21.7;38.6
76044;BME280;64740;34.694;33.088;2023-12-20T22:21:43;1039.2;;;21.7;38.6
76044;BME280;64740;34.694;33.088;2023-12-20T22:26:47;1039.1;;;21.7;38.7
76044;BME280;64740;34.694;33.088;2023-12-20T22:32:19;1039.2;;;21.7;38.4
76044;BME280;64740;34.694;33.088;2023-12-20T22:37:07;1039.2;;;21.6;38.4
76044;BME280;64740;34.694;33.088;2023-12-20T22:41:43;1039.1;;;21.6;38.5
76044;BME280;64740;34.694;33.088;2023-12-20T22:46:57;1038.9;;;21.6;38.5
76044;BME280;64740;34.694;33.088;2023-12-20T22:52:19;1038.6;;;21.6;38.5
76044;BME280;64740;34.694;33.088;2023-12-20T22:57:13;1038.4;;;21.5;38.5
76044;BME280;64740;34.694;33.088;2023-12-20T23:01:41;1038;;;21.5;38.5
76044;BME280;64740;34.694;33.088;2023-12-20T23:06:49;1038.2;;;21.4;38.5
76044;BME280;64740;34.694;33.088;2023-12-20T23:11:35;1037.9;;;21.4;38.8
76044;BME280;64740;34.694;33.088;2023-12-20T23:16:38;1037.7;;;21.5;38.9
76044;BME280;64740;34.694;33.088;2023-12-20T23:22:19;1037.7;;;21.5;38.8
76044;BME280;64740;34.694;33.088;2023-12-20T23:27:09;1037.8;;;21.5;38.7
76044;BME280;64740;34.694;33.088;2023-12-20T23:31:49;1038.2;;;21.5;38.8
76044;BME280;64740;34.694;33.088;2023-12-20T23:37:05;1038.4;;;21.5;38.7
76044;BME280;64740;34.694;33.088;2023-12-20T23:42:05;1038.4;;;21.6;38.8
76044;BME280;64740;34.694;33.088;2023-12-20T23:47:17;1038.6;;;21.6;38.7
76044;BME280;64740;34.694;33.088;2023-12-20T23:51:41;1038.6;;;21.7;38.7
76044;BME280;64740;34.694;33.088;2023-12-20T23:56:43;1038.6;;;21.7;38.6
